Time;durP1;ratioP1;P1;durP2;ratioP2;P2;SDS_P1;SDS_P2;PMS_P1;PMS_P2;Temp;Humidity;BMP_temperature;BMP_pressure;BME280_temperature;BME280_humidity;BME280_pressure;Samples;Min_cycle;Max_cycle;Signal;HPM_P1;HPM_P2
2021/04/05 00:01:36;;;;;;;5.57;1.35;;;;;;;9.24;71.20;101522.59;5032468;28;20049;-47
2021/04/05 00:04:04;;;;;;;8.60;1.50;;;;;;;9.22;71.77;101514.59;5032840;28;20045;-49
2021/04/05 00:06:31;;;;;;;5.43;1.08;;;;;;;9.21;71.94;101520.47;5032752;28;20038;-50
2021/04/05 00:08:57;;;;;;;5.03;1.38;;;;;;;9.17;72.13;101515.56;5032719;28;20096;-53
2021/04/05 00:11:23;;;;;;;7.50;1.45;;;;;;;9.13;72.77;101533.09;5032405;28;20069;-48
2021/04/05 00:13:50;;;;;;;4.38;1.42;;;;;;;9.01;73.15;101519.84;5027334;28;20173;-48
2021/04/05 00:16:20;;;;;;;4.50;1.20;;;;;;;9.05;72.74;101520.84;5031134;28;20148;-48
2021/04/05 00:18:47;;;;;;;4.63;1.40;;;;;;;9.03;73.51;101511.25;5013548;28;20057;-50
2021/04/05 00:21:22;;;;;;;2.95;1.00;;;;;;;8.99;74.23;101516.59;5012877;28;20050;-48
2021/04/05 00:23:50;;;;;;;1.83;0.80;;;;;;;8.98;73.86;101509.44;5025654;28;20053;-48
2021/04/05 00:26:16;;;;;;;6.95;2.67;;;;;;;8.96;74.12;101508.94;5029852;28;20108;-47
2021/04/05 00:28:43;;;;;;;8.10;1.85;;;;;;;8.93;74.26;101517.03;5006945;28;20701;-47
2021/04/05 00:31:09;;;;;;;8.18;1.50;;;;;;;8.94;74.16;101522.25;5014050;28;20132;-51
2021/04/05 00:33:36;;;;;;;4.55;1.30;;;;;;;8.94;74.19;101526.97;5008762;28;20068;-48
2021/04/05 00:36:03;;;;;;;6.47;1.10;;;;;;;8.94;74.09;101536.06;5032261;28;20521;-48
2021/04/05 00:38:29;;;;;;;5.55;1.70;;;;;;;8.90;74.43;101534.22;5024115;28;20077;-50
2021/04/05 00:41:00;;;;;;;9.75;1.90;;;;;;;8.84;74.34;101536.28;5023390;28;20073;-51
2021/04/05 00:43:27;;;;;;;9.13;2.78;;;;;;;8.81;73.87;101534.19;5017634;28;20104;-47
2021/04/05 00:45:53;;;;;;;9.55;2.55;;;;;;;8.76;74.11;101531.56;5012053;28;20076;-49
2021/04/05 00:48:20;;;;;;;11.50;2.35;;;;;;;8.77;73.72;101527.66;4997898;28;20090;-48
2021/04/05 00:50:58;;;;;;;9.90;3.55;;;;;;;8.75;73.88;101532.69;5011786;28;20069;-47
2021/04/05 00:53:31;;;;;;;13.45;2.10;;;;;;;8.73;73.23;101523.91;4991971;28;20054;-50
2021/04/05 00:55:58;;;;;;;22.85;4.10;;;;;;;8.71;72.75;101522.59;4990147;28;20097;-47
2021/04/05 00:58:25;;;;;;;12.30;2.05;;;;;;;8.68;72.56;101535.06;4994475;28;20133;-49
2021/04/05 01:00:54;;;;;;;15.30;3.05;;;;;;;8.60;72.31;101524.78;5008013;28;20049;-47
2021/04/05 01:03:23;;;;;;;14.85;2.67;;;;;;;8.60;71.98;101524.78;4995463;28;20193;-47
2021/04/05 01:05:53;;;;;;;11.68;2.13;;;;;;;8.57;71.33;101536.44;4995267;28;20120;-49
2021/04/05 01:08:21;;;;;;;13.85;3.30;;;;;;;8.47;70.86;101542.22;5011966;28;20125;-50
2021/04/05 01:10:48;;;;;;;16.75;3.35;;;;;;;8.36;70.25;101540.81;4997703;28;20046;-50
2021/04/05 01:13:15;;;;;;;20.23;3.92;;;;;;;8.40;70.42;101530.75;5000800;28;20058;-51
2021/04/05 01:15:42;;;;;;;19.60;3.17;;;;;;;8.28;69.43;101533.25;4996736;28;20108;-48
2021/04/05 01:18:09;;;;;;;23.35;5.07;;;;;;;8.18;68.44;101528.75;5010024;28;20050;-48
2021/04/05 01:20:35;;;;;;;21.88;3.15;;;;;;;8.11;68.40;101533.06;4996795;28;20094;-49
2021/04/05 01:23:03;;;;;;;22.25;5.03;;;;;;;8.08;68.33;101511.59;4997349;28;20050;-47
2021/04/05 01:25:29;;;;;;;20.25;4.07;;;;;;;8.12;68.17;101518.97;4991950;28;20140;-49
2021/04/05 01:27:57;;;;;;;13.25;3.10;;;;;;;8.15;67.81;101539.59;4991557;28;20112;-50
2021/04/05 01:30:46;;;;;;;19.30;3.40;;;;;;;8.15;67.40;101528.56;4991230;28;20125;-47
2021/04/05 01:33:15;;;;;;;11.48;3.47;;;;;;;8.10;67.29;101525.94;5007348;28;20109;-47
2021/04/05 01:35:44;;;;;;;14.27;2.78;;;;;;;8.09;66.88;101533.38;5009742;28;20050;-45
2021/04/05 01:38:14;;;;;;;17.00;5.30;;;;;;;8.10;66.89;101543.25;4993231;28;20395;-47
2021/04/05 01:40:43;;;;;;;21.92;3.25;;;;;;;8.11;67.06;101544.91;4996305;28;20070;-48
2021/04/05 01:43:11;;;;;;;19.95;4.75;;;;;;;8.11;66.66;101541.31;4997725;28;20069;-50
2021/04/05 01:45:39;;;;;;;15.57;3.42;;;;;;;8.10;66.77;101557.06;4991332;28;20587;-48
2021/04/05 01:48:07;;;;;;;22.05;5.25;;;;;;;8.06;66.82;101560.75;5005428;28;20080;-52
2021/04/05 01:50:33;;;;;;;25.85;4.40;;;;;;;7.93;66.28;101554.94;5016999;28;20403;-46
2021/04/05 01:53:03;;;;;;;17.90;4.05;;;;;;;7.79;65.50;101547.78;5009979;28;20060;-50
2021/04/05 01:55:31;;;;;;;19.38;4.82;;;;;;;7.67;65.33;101562.09;5019043;28;20049;-52
2021/04/05 01:57:58;;;;;;;21.02;4.03;;;;;;;7.58;65.03;101574.13;5025610;28;20137;-48
2021/04/05 02:00:28;;;;;;;20.15;4.90;;;;;;;7.54;64.67;101567.59;5008272;28;20452;-46
2021/04/05 02:02:56;;;;;;;17.92;4.35;;;;;;;7.53;64.74;101566.78;5008790;28;20046;-46
2021/04/05 02:05:27;;;;;;;46.88;5.22;;;;;;;7.45;64.51;101563.91;5015430;28;20470;-48
2021/04/05 02:07:53;;;;;;;28.48;6.78;;;;;;;7.37;64.32;101573.69;5010521;28;20447;-47
2021/04/05 02:10:25;;;;;;;19.27;4.75;;;;;;;7.29;64.02;101555.94;5009959;28;20107;-46
2021/04/05 02:12:53;;;;;;;;;;;;;;;7.23;63.77;101561.81;5009529;28;20138;-48
2021/04/05 02:15:19;;;;;;;19.40;4.20;;;;;;;7.23;64.32;101568.16;5010620;28;20317;-48
2021/04/05 02:17:46;;;;;;;18.35;4.30;;;;;;;7.11;64.40;101564.25;5030537;28;20128;-47
2021/04/05 02:20:15;;;;;;;16.85;3.60;;;;;;;7.05;64.42;101568.22;5013919;28;20399;-51
2021/04/05 02:22:47;;;;;;;19.80;4.07;;;;;;;7.02;64.04;101582.56;5000915;28;20053;-49
2021/04/05 02:25:23;;;;;;;19.50;4.60;;;;;;;7.05;64.30;101587.47;5010973;28;20054;-49
2021/04/05 02:27:51;;;;;;;21.60;5.53;;;;;;;6.98;63.96;101582.38;4988929;28;20097;-46
2021/04/05 02:30:29;;;;;;;22.25;5.07;;;;;;;6.98;64.30;101587.06;5014037;28;20104;-47
2021/04/05 02:33:03;;;;;;;17.33;4.05;;;;;;;6.98;64.03;101584.31;5013050;28;20049;-46
2021/04/05 02:35:34;;;;;;;16.42;3.25;;;;;;;7.01;63.82;101580.97;4991376;28;20447;-46
2021/04/05 02:38:02;;;;;;;16.63;4.05;;;;;;;7.06;64.01;101584.44;5016858;28;20077;-47
2021/04/05 02:40:31;;;;;;;20.05;3.75;;;;;;;7.09;63.79;101577.53;4996048;28;20406;-46
2021/04/05 02:43:01;;;;;;;17.33;4.20;;;;;;;7.10;63.94;101570.88;5017243;28;20072;-51
2021/04/05 02:45:27;;;;;;;41.97;4.88;;;;;;;7.03;63.83;101576.78;5005291;28;20066;-46
2021/04/05 02:47:59;;;;;;;22.80;4.65;;;;;;;7.03;64.21;101575.97;5001127;28;20140;-47
2021/04/05 02:50:29;;;;;;;17.25;4.53;;;;;;;7.06;64.06;101578.13;5002844;28;20376;-48
2021/04/05 02:52:58;;;;;;;18.33;4.55;;;;;;;7.07;63.97;101579.75;5030937;28;20042;-49
2021/04/05 02:55:25;;;;;;;12.40;4.35;;;;;;;7.08;63.96;101584.13;5019110;28;20684;-48
2021/04/05 02:57:52;;;;;;;19.35;4.50;;;;;;;7.11;63.70;101586.28;5017334;28;20120;-46
2021/04/05 03:00:20;;;;;;;24.73;5.70;;;;;;;7.08;63.51;101586.88;5019324;28;20045;-50
2021/04/05 03:02:48;;;;;;;19.83;4.72;;;;;;;7.06;63.49;101594.63;5029773;28;20390;-47
2021/04/05 03:05:22;;;;;;;24.23;5.70;;;;;;;7.00;63.11;101577.38;5026049;28;20152;-49
2021/04/05 03:07:50;;;;;;;14.45;3.97;;;;;;;7.00;63.46;101573.81;5036675;28;20490;-48
2021/04/05 03:10:18;;;;;;;13.40;4.22;;;;;;;6.97;63.89;101574.41;5016874;28;20125;-50
2021/04/05 03:12:49;;;;;;;20.27;3.85;;;;;;;7.02;64.00;101575.13;5034741;28;20052;-47
2021/04/05 03:15:15;;;;;;;18.58;4.45;;;;;;;7.04;63.42;101580.38;5024249;28;20833;-50
2021/04/05 03:17:42;;;;;;;17.85;5.68;;;;;;;7.06;63.76;101578.94;5016843;28;20133;-49
2021/04/05 03:20:17;;;;;;;15.00;4.40;;;;;;;7.09;63.77;101570.09;5029311;28;20073;-48
2021/04/05 03:22:45;;;;;;;13.93;4.18;;;;;;;7.15;63.55;101568.03;5012874;28;20050;-48
2021/04/05 03:25:19;;;;;;;20.48;4.53;;;;;;;7.16;63.29;101566.91;5027437;28;20048;-46
2021/04/05 03:27:47;;;;;;;16.75;4.90;;;;;;;7.16;63.62;101573.25;5017334;28;20136;-48
2021/04/05 03:30:21;;;;;;;18.13;5.07;;;;;;;7.10;63.17;101576.38;5024074;28;20108;-49
2021/04/05 03:32:54;;;;;;;19.88;3.72;;;;;;;7.10;63.09;101576.38;4996830;28;20050;-45
2021/04/05 03:35:25;;;;;;;21.33;4.25;;;;;;;7.11;63.03;101583.53;5034571;28;20057;-49
2021/04/05 03:37:54;;;;;;;18.05;4.32;;;;;;;7.13;62.69;101584.03;5017538;28;20156;-50
2021/04/05 03:40:21;;;;;;;11.43;3.40;;;;;;;7.13;62.77;101589.56;5022911;28;20041;-49
2021/04/05 03:42:55;;;;;;;13.18;3.72;;;;;;;7.10;62.31;101593.72;5021928;28;20108;-46
2021/04/05 03:45:44;;;;;;;21.65;5.40;;;;;;;7.07;62.38;101590.78;5036355;28;20069;-49
2021/04/05 03:48:30;;;;;;;14.32;3.42;;;;;;;7.08;62.65;101597.91;5013245;28;20112;-47
2021/04/05 03:51:09;;;;;;;15.07;3.03;;;;;;;7.00;62.62;101601.34;5027495;28;20041;-49
2021/04/05 03:53:49;;;;;;;16.67;4.35;;;;;;;7.00;62.70;101595.84;5016286;28;20077;-48
2021/04/05 03:56:21;;;;;;;13.90;3.67;;;;;;;7.01;62.41;101601.06;5026051;28;20129;-48
2021/04/05 03:58:50;;;;;;;15.73;4.00;;;;;;;7.01;62.72;101598.31;5020607;28;20048;-47
2021/04/05 04:01:23;;;;;;;12.27;3.20;;;;;;;6.99;62.38;101602.47;5020546;28;20116;-50
2021/04/05 04:06:31;;;;;;;15.15;3.55;;;;;;;6.87;62.10;101607.59;5027210;28;20046;-47
2021/04/05 04:09:00;;;;;;;16.35;3.88;;;;;;;6.89;62.15;101605.38;5011757;28;20492;-49
2021/04/05 04:11:29;;;;;;;11.23;3.10;;;;;;;6.82;61.68;101613.19;5023703;28;20128;-50
2021/04/05 04:13:58;;;;;;;14.35;4.40;;;;;;;6.83;61.44;101606.59;5029191;28;20057;-51
2021/04/05 04:16:25;;;;;;;15.52;3.13;;;;;;;6.67;61.19;101592.25;5024230;28;20042;-48
2021/04/05 04:18:51;;;;;;;13.95;2.85;;;;;;;6.61;60.87;101594.25;5014471;28;20148;-47
2021/04/05 04:21:19;;;;;;;11.63;2.88;;;;;;;6.57;60.89;101593.19;5015361;28;20049;-51
2021/04/05 04:23:46;;;;;;;11.00;2.60;;;;;;;6.61;61.08;101587.94;5013321;28;20132;-48
2021/04/05 04:26:12;;;;;;;12.88;3.53;;;;;;;6.66;60.95;101596.09;5016520;28;20120;-48
2021/04/05 04:28:44;;;;;;;11.85;4.22;;;;;;;6.68;61.37;101594.69;5012268;28;20050;-47
2021/04/05 04:31:11;;;;;;;18.80;4.05;;;;;;;6.65;61.08;101600.78;5006314;28;20100;-49
2021/04/05 04:33:38;;;;;;;14.23;3.22;;;;;;;6.60;61.44;101591.78;5012415;28;20050;-48
2021/04/05 04:36:06;;;;;;;9.48;3.25;;;;;;;6.58;61.08;101589.34;5017397;28;20144;-49
2021/04/05 04:38:33;;;;;;;14.35;3.70;;;;;;;6.56;61.23;101602.59;4994571;28;20050;-46
2021/04/05 04:41:00;;;;;;;12.00;3.00;;;;;;;6.50;61.05;101601.00;5026402;28;20073;-48
2021/04/05 04:43:26;;;;;;;16.80;4.32;;;;;;;6.52;60.51;101614.47;5011664;28;20084;-46
2021/04/05 04:45:55;;;;;;;11.60;3.00;;;;;;;6.45;60.81;101603.84;5016147;28;20125;-46
2021/04/05 04:48:21;;;;;;;9.18;2.28;;;;;;;6.48;60.75;101595.00;5013880;28;20888;-49
2021/04/05 04:50:48;;;;;;;15.10;2.92;;;;;;;6.54;60.41;101601.25;4978767;28;20538;-47
2021/04/05 04:53:14;;;;;;;15.93;4.72;;;;;;;6.59;60.75;101596.47;4995491;28;20078;-51
2021/04/05 04:55:41;;;;;;;9.95;2.50;;;;;;;6.65;60.61;101606.28;4992657;28;20069;-47
2021/04/05 04:58:07;;;;;;;11.98;4.57;;;;;;;6.62;60.69;101626.13;5000847;28;20056;-47
2021/04/05 05:00:34;;;;;;;14.00;2.13;;;;;;;6.63;60.67;101613.19;4992252;28;20649;-49
2021/04/05 05:03:01;;;;;;;12.35;4.03;;;;;;;6.61;61.06;101615.44;4998797;28;20121;-49
2021/04/05 05:05:30;;;;;;;10.98;2.70;;;;;;;6.61;60.65;101610.75;4992651;28;20121;-47
2021/04/05 05:07:58;;;;;;;18.23;3.85;;;;;;;6.62;61.13;101612.38;5001840;28;20129;-48
2021/04/05 05:10:25;;;;;;;8.98;2.53;;;;;;;6.59;61.28;101609.44;4974894;28;20165;-50
2021/04/05 05:12:52;;;;;;;10.43;2.92;;;;;;;6.51;61.02;101619.13;4994624;28;20038;-50
2021/04/05 05:15:19;;;;;;;15.90;4.68;;;;;;;6.45;61.45;101614.84;5010501;28;20118;-48
2021/04/05 05:17:47;;;;;;;12.90;2.70;;;;;;;6.37;61.33;101621.00;4997836;28;20057;-47
2021/04/05 05:20:15;;;;;;;8.85;2.47;;;;;;;6.36;61.54;101613.03;5007314;28;20478;-52
2021/04/05 05:23:04;;;;;;;10.00;2.50;;;;;;;6.32;61.51;101612.81;4993791;28;20042;-48
2021/04/05 05:25:33;;;;;;;18.90;3.35;;;;;;;6.23;61.65;101617.34;5006089;28;20447;-48
2021/04/05 05:28:10;;;;;;;14.45;3.10;;;;;;;6.08;61.70;101612.03;5010995;28;20677;-50
2021/04/05 05:30:37;;;;;;;10.73;2.33;;;;;;;6.01;61.33;101611.59;5005934;28;20042;-48
2021/04/05 05:33:06;;;;;;;13.40;2.50;;;;;;;5.95;61.47;101624.56;4991842;28;20069;-48
2021/04/05 05:35:33;;;;;;;16.30;3.60;;;;;;;5.89;61.33;101633.16;4997980;28;20053;-46
2021/04/05 05:38:02;;;;;;;8.60;2.20;;;;;;;5.80;61.57;101637.63;5006072;28;20073;-50
2021/04/05 05:40:29;;;;;;;11.80;2.88;;;;;;;5.75;61.51;101630.25;5001565;28;20401;-48
2021/04/05 05:43:41;;;;;;;7.03;2.03;;;;;;;5.70;61.10;101644.03;5008318;28;20077;-50
2021/04/05 05:46:08;;;;;;;12.75;2.33;;;;;;;5.70;61.17;101643.22;4964650;28;20133;-49
2021/04/05 05:48:47;;;;;;;11.07;1.95;;;;;;;5.70;61.20;101656.97;5002246;28;20053;-48
2021/04/05 05:51:23;;;;;;;8.50;2.30;;;;;;;5.68;60.70;101668.25;5021949;28;20065;-49
2021/04/05 05:54:02;;;;;;;10.13;1.80;;;;;;;5.71;60.73;101672.34;5015785;28;20129;-46
2021/04/05 05:57:03;;;;;;;12.35;2.83;;;;;;;5.73;61.02;101672.88;5009633;28;20092;-48
2021/04/05 05:59:35;;;;;;;16.23;3.72;;;;;;;5.77;61.22;101660.19;4959732;28;20082;-47
2021/04/05 06:02:40;;;;;;;8.07;2.00;;;;;;;5.78;61.39;101667.31;5027186;28;20045;-52
2021/04/05 06:05:17;;;;;;;8.88;2.13;;;;;;;5.79;61.53;101666.22;4929900;29;20469;-50
2021/04/05 06:08:21;;;;;;;15.63;2.63;;;;;;;5.82;61.25;101668.38;4930250;29;20139;-49
2021/04/05 06:11:05;;;;;;;8.40;2.03;;;;;;;5.86;61.42;101670.28;5000150;28;20084;-49
2021/04/05 06:13:46;;;;;;;12.10;3.55;;;;;;;5.94;61.38;101679.81;5026359;28;20045;-50
2021/04/05 06:16:28;;;;;;;16.20;2.95;;;;;;;5.96;60.97;101674.84;5004498;28;20124;-48
2021/04/05 06:19:26;;;;;;;10.23;2.73;;;;;;;5.98;61.04;101680.88;5015532;28;20100;-47
2021/04/05 06:22:03;;;;;;;13.75;2.25;;;;;;;5.99;61.16;101685.25;5018719;28;20057;-49
2021/04/05 06:25:14;;;;;;;9.85;2.80;;;;;;;5.98;61.29;101684.44;5013960;28;20069;-52
2021/04/05 06:27:52;;;;;;;8.73;1.87;;;;;;;5.99;60.94;101696.25;4990287;28;20578;-49
2021/04/05 06:30:27;;;;;;;14.27;2.55;;;;;;;6.03;60.96;101702.81;5018099;28;20053;-50
2021/04/05 06:33:20;;;;;;;10.77;2.33;;;;;;;5.90;61.55;101714.50;5028059;28;20081;-49
2021/04/05 06:36:29;;;;;;;6.15;1.50;;;;;;;5.84;61.40;101708.22;5018037;28;20128;-51
2021/04/05 06:39:27;;;;;;;6.38;1.55;;;;;;;5.73;61.87;101745.13;5022020;28;20111;-47
2021/04/05 06:42:22;;;;;;;6.85;2.05;;;;;;;5.33;62.63;101753.69;5024522;28;20057;-46
2021/04/05 06:45:32;;;;;;;3.80;1.42;;;;;;;4.96;63.78;101759.69;5015551;28;20132;-49
2021/04/05 06:48:34;;;;;;;4.10;1.30;;;;;;;4.77;64.23;101766.91;5008435;28;20056;-49
2021/04/05 06:51:31;;;;;;;7.15;1.25;;;;;;;4.72;64.96;101769.69;5007456;28;20081;-50
2021/04/05 06:54:28;;;;;;;3.75;1.25;;;;;;;4.66;64.36;101768.09;5005249;28;20127;-48
2021/04/05 06:57:15;;;;;;;3.30;1.00;;;;;;;4.59;64.82;101770.28;5011062;28;20090;-53
2021/04/05 07:00:01;;;;;;;2.83;1.08;;;;;;;4.60;64.40;101777.44;5021828;28;20049;-50
2021/04/05 07:03:14;;;;;;;5.18;1.45;;;;;;;4.62;64.79;101777.97;5017261;28;20065;-49
2021/04/05 07:06:25;;;;;;;7.15;1.73;;;;;;;4.67;64.28;101775.19;4989475;28;20077;-49
2021/04/05 07:08:52;;;;;;;7.20;1.92;;;;;;;4.69;64.31;101775.72;4984325;28;20132;-46
2021/04/05 07:11:25;;;;;;;6.80;1.90;;;;;;;4.81;64.31;101784.47;5011232;28;20124;-46
2021/04/05 07:14:28;;;;;;;3.92;2.30;;;;;;;4.82;64.54;101794.31;5008639;28;20131;-50
2021/04/05 07:17:14;;;;;;;4.05;1.80;;;;;;;4.90;64.62;101805.53;5015552;28;20050;-49
2021/04/05 07:19:46;;;;;;;6.75;3.25;;;;;;;5.00;64.43;101803.88;4990935;28;20129;-53
2021/04/05 07:22:22;;;;;;;;;;;;;;;5.02;64.45;101805.22;5008100;28;20046;-49
2021/04/05 07:24:58;;;;;;;11.55;2.55;;;;;;;5.01;64.14;101805.47;5010155;28;20440;-51
2021/04/05 07:27:37;;;;;;;4.63;2.28;;;;;;;5.04;64.64;101807.66;5010594;28;20046;-49
2021/04/05 07:30:18;;;;;;;6.78;2.25;;;;;;;5.05;64.32;101823.88;5008615;28;20084;-52
2021/04/05 07:33:04;;;;;;;3.53;1.92;;;;;;;5.08;64.65;101823.31;5008315;28;20430;-49
2021/04/05 07:35:43;;;;;;;6.85;1.58;;;;;;;5.20;64.22;101822.97;5014495;28;20089;-49
2021/04/05 07:38:18;;;;;;;3.58;1.70;;;;;;;5.31;64.28;101828.13;5004252;28;20137;-48
2021/04/05 07:41:06;;;;;;;3.47;0.90;;;;;;;5.34;64.35;101827.56;5007538;28;20060;-48
2021/04/05 07:43:54;;;;;;;1.35;1.08;;;;;;;5.45;63.90;101823.63;5019194;28;20053;-45
2021/04/05 07:46:38;;;;;;;9.13;1.45;;;;;;;5.56;63.82;101835.34;5015320;28;20096;-48
2021/04/05 07:49:12;;;;;;;10.45;2.20;;;;;;;5.62;64.01;101838.88;5012522;28;20129;-52
2021/04/05 07:52:03;;;;;;;9.25;1.48;;;;;;;5.68;63.82;101855.06;5019527;28;20231;-45
2021/04/05 07:54:34;;;;;;;8.93;1.55;;;;;;;5.60;63.45;101858.41;5002622;28;20069;-54
2021/04/05 07:57:22;;;;;;;6.00;1.20;;;;;;;5.64;63.84;101864.16;5005955;28;20069;-51
2021/04/05 08:00:03;;;;;;;8.18;1.52;;;;;;;5.71;63.16;101859.16;5008596;28;20053;-50
2021/04/05 08:03:03;;;;;;;6.10;1.23;;;;;;;5.70;62.57;101877.56;5011619;28;20124;-48
2021/04/05 08:05:56;;;;;;;5.10;1.15;;;;;;;5.71;62.90;101881.16;5011958;28;20121;-47
2021/04/05 08:08:53;;;;;;;6.57;1.40;;;;;;;5.71;62.20;101881.16;5010819;28;20462;-48
2021/04/05 08:11:47;;;;;;;6.78;1.35;;;;;;;5.87;61.83;101896.47;5007239;28;20046;-50
2021/04/05 08:14:29;;;;;;;6.43;1.55;;;;;;;5.92;60.54;101894.50;5007811;28;20100;-51
2021/04/05 08:17:01;;;;;;;4.82;1.50;;;;;;;5.83;60.71;101906.31;5017490;28;20061;-54
2021/04/05 08:19:45;;;;;;;14.93;2.85;;;;;;;5.73;60.88;101911.91;5012007;28;20050;-47
2021/04/05 08:22:18;;;;;;;4.82;1.02;;;;;;;5.44;60.74;101915.38;5010425;28;20132;-48
2021/04/05 08:25:23;;;;;;;7.63;1.77;;;;;;;5.29;58.70;101922.84;5021292;28;20052;-46
2021/04/05 08:28:21;;;;;;;3.08;1.27;;;;;;;5.34;59.36;101917.34;4970146;28;20192;-47
2021/04/05 08:31:17;;;;;;;2.20;0.50;;;;;;;5.47;57.61;101931.28;4978218;28;20061;-47
2021/04/05 08:34:03;;;;;;;7.05;0.88;;;;;;;5.65;58.88;101931.72;5024091;28;20061;-48
2021/04/05 08:36:48;;;;;;;3.60;0.60;;;;;;;5.80;56.42;101931.66;4980801;28;20084;-47
2021/04/05 08:39:30;;;;;;;4.68;0.80;;;;;;;5.94;57.47;101936.25;5009959;28;20384;-50
2021/04/05 08:42:14;;;;;;;3.40;0.65;;;;;;;6.08;54.16;101945.50;5010415;28;20113;-52
2021/04/05 08:44:51;;;;;;;3.03;1.05;;;;;;;6.13;53.89;101950.97;5003438;28;20045;-46
2021/04/05 08:47:41;;;;;;;4.32;1.10;;;;;;;6.31;52.02;101967.88;5023849;28;20558;-48
2021/04/05 08:50:10;;;;;;;3.88;0.52;;;;;;;6.49;56.63;101968.00;5004587;28;20154;-51
2021/04/05 08:52:43;;;;;;;2.67;1.00;;;;;;;6.60;55.66;101961.28;4990832;28;20133;-47
2021/04/05 08:55:14;;;;;;;3.53;1.00;;;;;;;6.60;55.32;101977.81;4980643;28;20436;-48
2021/04/05 08:58:14;;;;;;;4.75;0.80;;;;;;;6.63;54.44;101966.22;4987073;28;20142;-48
2021/04/05 09:00:47;;;;;;;4.32;1.10;;;;;;;7.05;55.83;101968.28;4943979;28;20145;-47
2021/04/05 09:03:21;;;;;;;2.15;0.68;;;;;;;7.32;55.86;101978.72;4987268;28;20303;-49
2021/04/05 09:05:49;;;;;;;7.65;1.70;;;;;;;7.27;54.88;101973.28;4990943;28;20149;-50
2021/04/05 09:08:22;;;;;;;6.72;2.13;;;;;;;7.17;53.39;101976.97;4998764;28;20585;-48
2021/04/05 09:10:52;;;;;;;12.68;2.83;;;;;;;6.97;53.22;101981.84;4988777;28;20046;-49
2021/04/05 09:13:23;;;;;;;10.20;3.80;;;;;;;6.87;53.07;101988.28;4987990;28;20046;-54
2021/04/05 09:16:02;;;;;;;10.77;4.22;;;;;;;6.86;53.46;101988.59;4997576;28;20117;-52
2021/04/05 09:19:04;;;;;;;9.02;2.28;;;;;;;6.73;51.34;101999.16;5007479;28;20069;-47
2021/04/05 09:22:03;;;;;;;4.40;2.03;;;;;;;6.52;51.56;101996.84;4983335;28;20089;-46
2021/04/05 09:24:48;;;;;;;5.47;1.17;;;;;;;6.61;52.10;102017.97;4985359;28;20460;-52
2021/04/05 09:27:33;;;;;;;5.60;1.00;;;;;;;6.56;50.86;102004.28;5000406;28;20051;-49
2021/04/05 09:30:33;;;;;;;3.67;1.05;;;;;;;6.85;49.87;102015.28;4974014;28;20142;-51
2021/04/05 09:33:18;;;;;;;15.35;2.83;;;;;;;7.91;52.45;102008.56;4992139;28;20074;-46
2021/04/05 09:36:01;;;;;;;4.97;0.90;;;;;;;8.86;51.30;102014.56;4996429;28;20078;-51
2021/04/05 09:39:19;;;;;;;7.97;1.25;;;;;;;9.42;47.96;102019.03;4999548;28;20498;-49
2021/04/05 09:42:00;;;;;;;4.90;1.75;;;;;;;9.95;50.73;102014.59;4943987;28;20062;-50
2021/04/05 09:44:27;;;;;;;6.38;1.42;;;;;;;10.16;49.67;102026.88;4995576;28;20104;-52
2021/04/05 09:47:23;;;;;;;6.68;2.13;;;;;;;10.49;46.18;102030.25;4994051;28;20578;-48
2021/04/05 09:50:10;;;;;;;3.78;1.17;;;;;;;10.56;45.68;102035.38;5002644;28;20053;-51
2021/04/05 09:52:53;;;;;;;6.50;1.63;;;;;;;10.14;46.15;102034.66;5001302;28;20661;-54
2021/04/05 09:55:40;;;;;;;6.47;2.20;;;;;;;9.34;43.52;102047.38;5015500;28;20045;-48
2021/04/05 09:58:21;;;;;;;2.80;1.00;;;;;;;8.73;44.61;102042.94;5021440;28;20037;-49
2021/04/05 10:00:56;;;;;;;6.17;1.10;;;;;;;8.17;45.70;102044.88;5026330;28;20076;-47
2021/04/05 10:03:23;;;;;;;5.55;1.55;;;;;;;7.91;47.18;102042.47;5010104;28;20045;-50
2021/04/05 10:05:51;;;;;;;4.22;1.42;;;;;;;8.31;47.37;102029.25;5025757;28;20080;-53
2021/04/05 10:08:27;;;;;;;4.50;1.88;;;;;;;8.54;45.61;102047.66;5025830;28;20093;-50
2021/04/05 10:10:56;;;;;;;5.28;1.40;;;;;;;8.63;46.91;102048.59;5023252;28;20435;-53
2021/04/05 10:13:28;;;;;;;4.10;1.15;;;;;;;8.44;46.44;102045.91;5008083;28;20046;-49
2021/04/05 10:16:11;;;;;;;10.10;1.30;;;;;;;8.58;47.20;102045.94;5009735;28;20124;-47
2021/04/05 10:18:47;;;;;;;9.82;2.47;;;;;;;8.41;45.75;102048.41;5008732;28;20050;-49
2021/04/05 10:21:14;;;;;;;6.28;1.20;;;;;;;8.78;46.73;102053.91;5008267;28;20822;-47
2021/04/05 10:23:41;;;;;;;4.78;2.28;;;;;;;9.13;46.67;102058.78;4984096;28;20050;-50
2021/04/05 10:26:09;;;;;;;2.03;1.02;;;;;;;9.79;46.01;102061.09;5018661;28;20804;-49
2021/04/05 10:28:38;;;;;;;6.75;1.40;;;;;;;9.71;45.94;102058.28;5008920;28;20439;-49
2021/04/05 10:31:09;;;;;;;5.47;1.10;;;;;;;9.52;45.84;102065.84;5003910;28;20080;-48
2021/04/05 10:33:41;;;;;;;4.57;1.13;;;;;;;9.37;44.56;102068.88;5009348;28;20430;-48
2021/04/05 10:36:11;;;;;;;5.22;1.48;;;;;;;9.64;45.54;102055.06;5006233;28;20073;-50
2021/04/05 10:38:39;;;;;;;7.95;1.33;;;;;;;9.98;44.47;102057.44;5001691;28;20148;-48
2021/04/05 10:41:09;;;;;;;9.93;1.98;;;;;;;10.33;43.53;102042.81;5009775;28;20057;-48
2021/04/05 10:43:57;;;;;;;5.95;1.10;;;;;;;10.62;41.04;102068.16;5023426;28;20050;-48
2021/04/05 10:46:31;;;;;;;3.05;0.90;;;;;;;10.10;42.51;102060.47;4986898;28;20128;-51
2021/04/05 10:49:07;;;;;;;7.97;1.40;;;;;;;9.61;41.52;102064.00;4995091;28;20048;-50
2021/04/05 10:51:40;;;;;;;3.63;1.75;;;;;;;9.50;41.11;102045.97;5010730;28;20054;-49
2021/04/05 10:54:10;;;;;;;4.47;1.20;;;;;;;9.45;41.95;102059.91;5012445;28;20042;-50
2021/04/05 10:56:47;;;;;;;4.07;1.20;;;;;;;9.36;40.58;102079.13;5021453;28;20395;-47
2021/04/05 10:59:22;;;;;;;4.60;0.80;;;;;;;9.02;40.94;102073.94;5011859;28;20578;-52
2021/04/05 11:01:51;;;;;;;6.53;1.35;;;;;;;9.12;42.11;102072.94;5019439;28;20045;-49
2021/04/05 11:04:22;;;;;;;2.25;1.02;;;;;;;9.22;41.84;102077.44;4997988;28;20050;-52
2021/04/05 11:06:50;;;;;;;5.18;1.42;;;;;;;9.34;41.94;102070.31;5018977;28;20548;-53
2021/04/05 11:09:18;;;;;;;4.90;1.00;;;;;;;9.18;41.97;102080.84;5015376;28;20502;-53
2021/04/05 11:11:51;;;;;;;3.17;1.20;;;;;;;8.87;41.35;102068.66;5017425;28;20112;-52
2021/04/05 11:14:20;;;;;;;4.70;1.50;;;;;;;8.96;42.08;102072.38;5020884;28;20053;-54
2021/04/05 11:16:53;;;;;;;4.15;1.10;;;;;;;9.24;42.03;102069.69;5008728;28;20502;-52
2021/04/05 11:19:28;;;;;;;4.32;1.52;;;;;;;9.30;41.69;102068.44;5014013;28;20052;-50
2021/04/05 11:21:55;;;;;;;6.63;1.02;;;;;;;9.07;41.65;102075.78;5012335;28;20050;-49
2021/04/05 11:24:30;;;;;;;4.97;1.92;;;;;;;8.93;39.92;102080.44;5020676;28;20582;-52
2021/04/05 11:26:58;;;;;;;7.90;2.05;;;;;;;8.63;41.55;102070.69;4998797;28;20042;-48
2021/04/05 11:29:27;;;;;;;6.75;1.73;;;;;;;8.49;41.95;102078.09;5018833;28;20087;-50
2021/04/05 11:31:57;;;;;;;2.78;0.90;;;;;;;8.40;41.57;102086.22;4997697;28;20508;-47
2021/04/05 11:34:28;;;;;;;4.75;1.08;;;;;;;8.18;41.74;102090.66;5019122;28;20402;-50
2021/04/05 11:36:57;;;;;;;5.18;1.25;;;;;;;8.09;41.82;102093.25;5015316;28;20144;-52
2021/04/05 11:39:33;;;;;;;3.70;1.88;;;;;;;8.02;41.75;102086.47;5012885;28;20057;-50
2021/04/05 11:42:03;;;;;;;5.80;1.35;;;;;;;7.87;41.92;102087.47;5003699;28;20409;-52
2021/04/05 11:44:38;;;;;;;4.13;1.10;;;;;;;7.66;42.23;102084.13;5024222;28;20033;-49
2021/04/05 11:47:07;;;;;;;3.08;0.85;;;;;;;7.59;42.22;102078.16;5012548;28;20050;-54
2021/04/05 11:49:34;;;;;;;3.50;0.75;;;;;;;7.72;42.00;102080.22;5003083;28;20458;-53
2021/04/05 11:52:48;;;;;;;10.02;2.58;;;;;;;7.83;41.10;102083.66;4979600;28;20054;-48
2021/04/05 11:55:22;;;;;;;7.50;2.58;;;;;;;7.91;40.88;102064.53;4913072;29;20083;-47
2021/04/05 11:58:19;;;;;;;9.38;1.55;;;;;;;7.89;41.08;102091.56;4912644;29;20595;-51
2021/04/05 12:00:52;;;;;;;5.00;0.93;;;;;;;7.84;42.28;102088.88;4977899;28;20058;-53
2021/04/05 12:03:26;;;;;;;3.70;0.93;;;;;;;7.77;41.68;102085.66;4971622;28;20575;-52
2021/04/05 12:06:20;;;;;;;2.45;1.02;;;;;;;7.62;42.38;102096.88;5005429;28;20042;-51
2021/04/05 12:08:57;;;;;;;4.85;0.80;;;;;;;7.72;42.63;102096.75;4987674;28;20102;-48
2021/04/05 12:11:27;;;;;;;6.72;1.20;;;;;;;7.90;42.35;102100.66;4996656;28;20042;-50